Time;durP1;ratioP1;P1;durP2;ratioP2;P2;SDS_P1;SDS_P2;PMS_P1;PMS_P2;Temp;Humidity;BMP_temperature;BMP_pressure;BME280_temperature;BME280_humidity;BME280_pressure;Samples;Min_cycle;Max_cycle;Signal;HPM_P1;HPM_P2
2023/12/05 00:00:18;;;;;;;46.75;26.85;;;-0.20;99.90;;;;;;2092875;28;20024;-74
2023/12/05 00:01:18;;;;;;;46.92;27.88;;;-0.20;99.90;;;;;;2083265;28;20032;-74
2023/12/05 00:02:19;;;;;;;45.25;26.95;;;-0.20;99.90;;;;;;2086721;28;20031;-74
2023/12/05 00:03:19;;;;;;;45.25;27.38;;;-0.20;99.90;;;;;;2088923;28;20036;-74
2023/12/05 00:04:20;;;;;;;46.35;27.23;;;-0.20;99.90;;;;;;2079963;28;20273;-74
2023/12/05 00:05:21;;;;;;;46.03;26.77;;;-0.20;99.90;;;;;;2090055;28;20162;-73
2023/12/05 00:06:21;;;;;;;43.92;26.63;;;-0.20;99.90;;;;;;2087537;28;20022;-74
2023/12/05 00:07:23;;;;;;;46.35;27.52;;;-0.20;99.90;;;;;;2088131;28;20033;-73
2023/12/05 00:08:24;;;;;;;43.88;26.40;;;-0.20;99.90;;;;;;2095451;28;20403;-73
2023/12/05 00:09:25;;;;;;;46.25;27.30;;;-0.20;99.90;;;;;;2095320;28;20032;-73
2023/12/05 00:10:25;;;;;;;47.58;28.20;;;-0.20;99.90;;;;;;2091927;28;20036;-73
2023/12/05 00:11:27;;;;;;;44.15;26.60;;;-0.20;99.90;;;;;;2088089;28;20117;-74
2023/12/05 00:12:27;;;;;;;47.28;27.80;;;-0.20;99.90;;;;;;2089747;28;20052;-74
2023/12/05 00:13:28;;;;;;;43.78;26.73;;;-0.20;99.90;;;;;;2090851;28;20051;-74
2023/12/05 00:14:29;;;;;;;45.47;27.30;;;-0.20;99.90;;;;;;2084444;28;20424;-73
2023/12/05 00:15:29;;;;;;;45.85;27.63;;;-0.20;99.90;;;;;;2090506;28;20039;-74
2023/12/05 00:16:30;;;;;;;45.42;27.45;;;-0.10;99.90;;;;;;2094521;28;20043;-73
2023/12/05 00:17:30;;;;;;;43.67;26.52;;;-0.20;99.90;;;;;;2092759;28;20490;-74
2023/12/05 00:18:31;;;;;;;44.55;27.55;;;-0.20;99.90;;;;;;2090990;28;20257;-73
2023/12/05 00:19:32;;;;;;;44.80;27.08;;;-0.20;99.90;;;;;;2092248;28;20032;-73
2023/12/05 00:20:32;;;;;;;46.33;27.67;;;-0.20;99.90;;;;;;2089877;28;20037;-73
2023/12/05 00:21:33;;;;;;;47.20;28.27;;;-0.20;99.90;;;;;;2091169;28;20037;-72
2023/12/05 00:22:33;;;;;;;48.83;27.75;;;-0.20;99.90;;;;;;2094982;28;20044;-73
2023/12/05 00:23:34;;;;;;;45.33;27.40;;;-0.20;99.90;;;;;;2086235;28;20065;-72
2023/12/05 00:24:34;;;;;;;45.28;27.98;;;-0.20;99.90;;;;;;2095153;28;20035;-73
2023/12/05 00:25:35;;;;;;;47.45;27.52;;;-0.20;99.90;;;;;;2095060;28;20748;-72
2023/12/05 00:26:35;;;;;;;45.13;27.48;;;-0.20;99.90;;;;;;2085777;28;20029;-74
2023/12/05 00:27:36;;;;;;;46.33;28.25;;;-0.20;99.90;;;;;;2088679;28;20461;-73
2023/12/05 00:28:36;;;;;;;48.00;28.17;;;-0.20;99.90;;;;;;2092247;28;20056;-73
2023/12/05 00:29:37;;;;;;;47.70;27.98;;;-0.20;99.90;;;;;;2087046;28;20032;-73
2023/12/05 00:30:38;;;;;;;46.40;28.00;;;-0.20;99.90;;;;;;2088894;28;20036;-73
2023/12/05 00:31:39;;;;;;;46.15;27.75;;;-0.20;99.90;;;;;;2088140;28;20068;-73
2023/12/05 00:32:40;;;;;;;48.30;28.17;;;-0.20;99.90;;;;;;2089872;28;20027;-73
2023/12/05 00:33:41;;;;;;;46.85;28.55;;;-0.20;99.90;;;;;;2087741;28;20076;-74
2023/12/05 00:34:47;;;;;;;45.65;28.17;;;-0.20;99.90;;;;;;2087512;28;20056;-73
2023/12/05 00:35:48;;;;;;;49.53;29.67;;;-0.20;99.90;;;;;;2086759;28;20024;-74
2023/12/05 00:36:48;;;;;;;44.65;27.83;;;-0.20;99.90;;;;;;2076393;28;20056;-73
2023/12/05 00:37:49;;;;;;;47.28;28.90;;;-0.20;99.90;;;;;;2084414;28;20094;-74
2023/12/05 00:38:49;;;;;;;46.42;28.27;;;-0.20;99.90;;;;;;2095474;28;20053;-73
2023/12/05 00:39:50;;;;;;;48.78;29.02;;;-0.10;99.90;;;;;;2091924;28;20068;-74
2023/12/05 00:40:50;;;;;;;47.28;28.98;;;-0.10;99.90;;;;;;2085669;28;20037;-74
2023/12/05 00:41:51;;;;;;;47.50;29.38;;;-0.10;99.90;;;;;;2084134;28;20507;-74
2023/12/05 00:42:52;;;;;;;47.17;28.45;;;-0.20;99.90;;;;;;2090533;28;20020;-74
2023/12/05 00:43:52;;;;;;;45.22;27.75;;;-0.20;99.90;;;;;;2085116;28;20036;-74
2023/12/05 00:44:53;;;;;;;47.08;27.60;;;-0.20;99.90;;;;;;2086500;28;20028;-74
2023/12/05 00:45:55;;;;;;;47.17;28.05;;;-0.20;99.90;;;;;;2086322;28;20025;-74
2023/12/05 00:46:56;;;;;;;48.28;28.15;;;-0.20;99.90;;;;;;2083222;28;20071;-74
2023/12/05 00:47:56;;;;;;;46.72;28.33;;;-0.20;99.90;;;;;;2082532;28;20029;-74
2023/12/05 00:48:57;;;;;;;46.53;28.90;;;-0.20;99.90;;;;;;2087386;28;20211;-73
2023/12/05 00:49:57;;;;;;;48.70;29.23;;;-0.20;99.90;;;;;;2091996;28;20051;-74
2023/12/05 00:50:58;;;;;;;46.95;28.67;;;-0.20;99.90;;;;;;2083951;28;20025;-72
2023/12/05 00:51:58;;;;;;;45.42;27.63;;;-0.20;99.90;;;;;;2091829;28;20475;-73
2023/12/05 00:52:59;;;;;;;48.15;28.25;;;-0.20;99.90;;;;;;2090122;28;20036;-73
2023/12/05 00:53:59;;;;;;;49.40;29.38;;;-0.20;99.90;;;;;;2086990;28;20024;-74
2023/12/05 00:55:00;;;;;;;46.88;28.38;;;-0.20;99.90;;;;;;2090654;28;20113;-74
2023/12/05 00:56:01;;;;;;;49.05;29.55;;;-0.30;99.90;;;;;;2084345;28;20028;-72
2023/12/05 00:57:01;;;;;;;48.08;29.55;;;-0.30;99.90;;;;;;2087098;28;20461;-73
2023/12/05 00:58:02;;;;;;;47.63;28.75;;;-0.20;99.90;;;;;;2083368;28;20107;-73
2023/12/05 00:59:02;;;;;;;50.00;29.60;;;-0.20;99.90;;;;;;2091966;28;20032;-73
2023/12/05 01:00:05;;;;;;;47.97;29.33;;;-0.20;99.90;;;;;;2083583;28;20107;-73
2023/12/05 01:01:07;;;;;;;45.92;28.50;;;-0.30;99.90;;;;;;2089714;28;20115;-73
2023/12/05 01:02:09;;;;;;;46.08;27.67;;;-0.20;99.90;;;;;;2079735;28;20059;-73
2023/12/05 01:03:10;;;;;;;46.63;28.60;;;-0.30;99.90;;;;;;2069737;28;20278;-74
2023/12/05 01:04:10;;;;;;;50.10;30.15;;;-0.30;99.90;;;;;;2072901;28;20037;-74
2023/12/05 01:05:11;;;;;;;49.78;29.10;;;-0.30;99.90;;;;;;2084308;28;20032;-74
2023/12/05 01:06:12;;;;;;;49.72;29.17;;;-0.30;99.90;;;;;;2086511;28;20021;-74
2023/12/05 01:07:12;;;;;;;49.15;29.67;;;-0.30;99.90;;;;;;2089044;28;20021;-73
2023/12/05 01:08:13;;;;;;;47.97;28.83;;;-0.20;99.90;;;;;;2085592;28;20036;-74
2023/12/05 01:09:14;;;;;;;46.95;28.88;;;-0.20;99.90;;;;;;2087046;28;20037;-74
2023/12/05 01:10:14;;;;;;;47.50;28.55;;;-0.30;99.90;;;;;;2087541;28;20067;-73
2023/12/05 01:11:16;;;;;;;49.75;29.30;;;-0.30;99.90;;;;;;2091751;28;20485;-74
2023/12/05 01:12:16;;;;;;;50.45;29.38;;;-0.30;99.90;;;;;;2090035;28;20021;-73
2023/12/05 01:13:17;;;;;;;50.10;29.70;;;-0.30;99.90;;;;;;2086696;28;20547;-73
2023/12/05 01:14:17;;;;;;;51.30;30.30;;;-0.30;99.90;;;;;;2091793;28;21435;-73
2023/12/05 01:15:18;;;;;;;46.90;28.83;;;-0.30;99.90;;;;;;2089056;28;20036;-73
2023/12/05 01:16:18;;;;;;;49.05;29.08;;;-0.30;99.90;;;;;;2088142;28;20028;-74
2023/12/05 01:17:19;;;;;;;49.15;29.88;;;-0.30;99.90;;;;;;2092275;28;20047;-73
2023/12/05 01:18:20;;;;;;;48.83;28.60;;;-0.30;99.90;;;;;;2089072;28;20111;-74
2023/12/05 01:19:20;;;;;;;47.50;28.38;;;-0.30;99.90;;;;;;2086017;28;20087;-73
2023/12/05 01:20:21;;;;;;;49.53;29.33;;;-0.30;99.90;;;;;;2083581;28;20021;-73
2023/12/05 01:21:21;;;;;;;48.85;29.73;;;-0.30;99.90;;;;;;2085902;28;20044;-74
2023/12/05 01:22:22;;;;;;;48.67;29.17;;;-0.30;99.90;;;;;;2094709;28;20050;-73
2023/12/05 01:23:23;;;;;;;47.45;28.88;;;-0.30;99.90;;;;;;2089358;28;20037;-73
2023/12/05 01:24:24;;;;;;;49.95;29.35;;;-0.30;99.90;;;;;;2082400;28;20048;-74
2023/12/05 01:25:24;;;;;;;50.28;30.02;;;-0.30;99.90;;;;;;2081883;28;20028;-76
2023/12/05 01:26:25;;;;;;;49.20;30.00;;;-0.40;99.90;;;;;;2079665;28;20234;-74
2023/12/05 01:27:25;;;;;;;50.40;29.88;;;-0.30;99.90;;;;;;2086344;28;20299;-73
2023/12/05 01:28:26;;;;;;;48.17;28.63;;;-0.40;99.90;;;;;;2093156;28;20020;-75
2023/12/05 01:29:26;;;;;;;49.78;29.33;;;-0.30;99.90;;;;;;2084336;28;20021;-73
2023/12/05 01:30:27;;;;;;;50.88;29.83;;;-0.30;99.90;;;;;;2091915;28;20419;-74
2023/12/05 01:31:27;;;;;;;50.45;29.90;;;-0.30;99.90;;;;;;2085257;28;20029;-74
2023/12/05 01:32:28;;;;;;;49.28;29.23;;;-0.40;99.90;;;;;;2069014;28;20037;-74
2023/12/05 01:33:28;;;;;;;51.70;29.55;;;-0.40;99.90;;;;;;2082874;28;20036;-74
2023/12/05 01:34:29;;;;;;;49.97;28.90;;;-0.40;99.90;;;;;;2091919;28;20067;-72
2023/12/05 01:35:30;;;;;;;46.85;28.52;;;-0.30;99.90;;;;;;2091258;28;20036;-73
2023/12/05 01:36:30;;;;;;;48.55;30.02;;;-0.30;99.90;;;;;;2080081;28;20032;-73
2023/12/05 01:37:31;;;;;;;49.38;29.50;;;-0.30;99.90;;;;;;2083826;28;20315;-73
2023/12/05 01:38:31;;;;;;;47.67;29.15;;;-0.40;99.90;;;;;;2089964;28;20132;-74
2023/12/05 01:39:32;;;;;;;48.67;29.55;;;-0.40;99.90;;;;;;2078859;28;20029;-73
2023/12/05 01:40:33;;;;;;;48.78;29.45;;;-0.40;99.90;;;;;;2083985;28;20025;-75
2023/12/05 01:41:33;;;;;;;49.13;29.80;;;-0.40;99.90;;;;;;2090336;28;20033;-75
2023/12/05 01:42:37;;;;;;;49.40;30.20;;;-0.40;99.90;;;;;;2091554;28;20440;-77
2023/12/05 01:43:37;;;;;;;50.90;29.83;;;-0.40;99.90;;;;;;2085283;28;20072;-75
2023/12/05 01:44:38;;;;;;;46.92;28.60;;;-0.30;99.90;;;;;;2088409;28;20506;-75
2023/12/05 01:45:39;;;;;;;51.42;30.63;;;-0.30;99.90;;;;;;2090977;28;20050;-75
2023/12/05 01:46:40;;;;;;;49.83;29.73;;;-0.40;99.90;;;;;;2076942;28;20291;-75
2023/12/05 01:47:41;;;;;;;48.08;28.88;;;-0.30;99.90;;;;;;2079675;28;20025;-74
2023/12/05 01:48:44;;;;;;;49.97;29.95;;;-0.40;99.90;;;;;;2090454;28;20632;-75
2023/12/05 01:49:46;;;;;;;48.90;29.83;;;-0.40;99.90;;;;;;2089569;28;20020;-75
2023/12/05 01:50:47;;;;;;;48.28;29.83;;;-0.30;99.90;;;;;;2084485;28;20135;-75
2023/12/05 01:51:48;;;;;;;49.00;29.35;;;-0.30;99.90;;;;;;2082152;28;20028;-75
2023/12/05 01:52:52;;;;;;;45.92;28.65;;;-0.30;99.90;;;;;;2087351;28;20071;-75
2023/12/05 01:53:52;;;;;;;47.95;29.00;;;-0.30;99.90;;;;;;2076737;28;20515;-75
2023/12/05 01:54:53;;;;;;;48.22;28.88;;;-0.30;99.90;;;;;;2077617;28;20087;-75
2023/12/05 01:55:54;;;;;;;49.55;29.00;;;-0.30;99.90;;;;;;2085015;28;20128;-75
2023/12/05 01:56:56;;;;;;;49.05;29.73;;;-0.40;99.90;;;;;;2084678;28;20452;-75
2023/12/05 01:57:58;;;;;;;47.13;28.50;;;-0.40;99.90;;;;;;2090793;28;20426;-75
2023/12/05 01:58:58;;;;;;;49.30;29.15;;;-0.30;99.90;;;;;;2082313;28;20350;-76
2023/12/05 02:00:00;;;;;;;48.33;28.70;;;-0.30;99.90;;;;;;2082714;28;20036;-75
2023/12/05 02:01:03;;;;;;;50.65;29.33;;;-0.30;99.90;;;;;;2070111;28;20479;-74
2023/12/05 02:02:04;;;;;;;48.28;28.88;;;-0.40;99.90;;;;;;2078110;28;20150;-74
2023/12/05 02:03:04;;;;;;;47.75;28.38;;;-0.40;99.90;;;;;;2083020;28;20078;-75
2023/12/05 02:04:06;;;;;;;52.17;30.15;;;-0.40;99.90;;;;;;2074391;28;20223;-75
2023/12/05 02:05:08;;;;;;;47.25;29.13;;;-0.40;99.90;;;;;;2074441;28;20025;-75
2023/12/05 02:06:09;;;;;;;48.88;28.70;;;-0.40;99.90;;;;;;2085448;28;20077;-75
2023/12/05 02:07:12;;;;;;;46.88;28.60;;;-0.40;99.90;;;;;;2068607;28;20037;-75
2023/12/05 02:08:18;;;;;;;52.17;29.95;;;-0.40;99.90;;;;;;2080956;28;20022;-75
2023/12/05 02:09:19;;;;;;;51.38;29.42;;;-0.40;99.90;;;;;;2092953;28;20020;-76
2023/12/05 02:10:20;;;;;;;54.88;31.13;;;-0.40;99.90;;;;;;2088745;28;20052;-75
2023/12/05 02:11:20;;;;;;;49.50;29.52;;;-0.40;99.90;;;;;;2086043;28;20025;-76
2023/12/05 02:12:21;;;;;;;49.25;29.60;;;-0.40;99.90;;;;;;2082253;28;20044;-76
2023/12/05 02:13:22;;;;;;;50.05;29.27;;;-0.40;99.90;;;;;;2083938;28;20036;-75
2023/12/05 02:14:22;;;;;;;49.25;29.80;;;-0.30;99.90;;;;;;2084101;28;20438;-76
2023/12/05 02:15:23;;;;;;;50.20;29.17;;;-0.30;99.90;;;;;;2090906;28;20032;-75
2023/12/05 02:16:40;;;;;;;48.88;28.17;;;-0.40;99.90;;;;;;2086337;28;20037;-76
2023/12/05 02:17:52;;;;;;;49.42;28.08;;;-0.40;99.90;;;;;;2066340;28;20043;-76
2023/12/05 02:19:08;;;;;;;45.58;26.88;;;-0.30;99.90;;;;;;2081384;28;20518;-76
2023/12/05 02:20:14;;;;;;;47.60;27.73;;;-0.40;99.90;;;;;;2072015;28;20463;-75
2023/12/05 02:21:24;;;;;;;46.70;27.88;;;-0.40;99.90;;;;;;2070995;28;20034;-76
2023/12/05 02:22:58;;;;;;;47.92;28.75;;;-0.40;99.90;;;;;;2076455;28;20041;-77
2023/12/05 02:24:15;;;;;;;51.40;28.55;;;-0.40;99.90;;;;;;2074476;28;20044;-75
2023/12/05 02:25:36;;;;;;;48.78;28.85;;;-0.40;99.90;;;;;;2075076;28;20279;-75
2023/12/05 02:27:05;;;;;;;45.15;26.60;;;-0.40;99.90;;;;;;2087599;28;20029;-75
2023/12/05 02:28:06;;;;;;;47.63;27.25;;;-0.40;99.90;;;;;;2082298;28;20160;-75
2023/12/05 02:29:07;;;;;;;46.08;27.10;;;-0.40;99.90;;;;;;2082265;28;20028;-76
2023/12/05 02:30:09;;;;;;;46.20;26.95;;;-0.40;99.90;;;;;;2084130;28;20592;-76
2023/12/05 02:31:10;;;;;;;45.53;26.48;;;-0.40;99.90;;;;;;2082729;28;20103;-75
2023/12/05 02:32:10;;;;;;;42.55;26.25;;;-0.40;99.90;;;;;;2078216;28;20090;-76
2023/12/05 02:33:11;;;;;;;44.50;26.92;;;-0.40;99.90;;;;;;2080482;28;20048;-75
2023/12/05 02:34:11;;;;;;;46.47;26.98;;;-0.40;99.90;;;;;;2088097;28;20515;-75
2023/12/05 02:35:12;;;;;;;45.53;27.20;;;-0.40;99.90;;;;;;2090573;28;20082;-75
2023/12/05 02:36:23;;;;;;;43.53;25.85;;;-0.30;99.90;;;;;;2069304;28;20077;-75
2023/12/05 02:37:55;;;;;;;44.33;26.15;;;-0.40;99.90;;;;;;2085547;28;20021;-74
2023/12/05 02:39:16;;;;;;;45.28;26.90;;;-0.30;99.90;;;;;;2091263;28;20500;-74
2023/12/05 02:40:31;;;;;;;43.20;25.65;;;-0.30;99.90;;;;;;2086835;28;20025;-74
2023/12/05 02:41:34;;;;;;;43.08;25.42;;;-0.30;99.90;;;;;;2088759;28;20029;-73
2023/12/05 02:42:36;;;;;;;44.20;26.33;;;-0.30;99.90;;;;;;2071763;28;20120;-76
2023/12/05 02:43:44;;;;;;;43.80;26.05;;;-0.30;99.90;;;;;;2084295;28;20029;-77
2023/12/05 02:44:47;;;;;;;43.58;25.63;;;-0.30;99.90;;;;;;2087139;28;20056;-79
2023/12/05 02:45:51;;;;;;;42.65;25.77;;;-0.30;99.90;;;;;;2088312;28;20029;-77
2023/12/05 02:46:53;;;;;;;44.28;26.08;;;-0.40;99.90;;;;;;2086065;28;20118;-77
2023/12/05 02:47:55;;;;;;;43.40;26.50;;;-0.40;99.90;;;;;;2092120;28;20017;-77
2023/12/05 02:48:57;;;;;;;42.08;25.80;;;-0.30;99.90;;;;;;2090370;28;20031;-77
2023/12/05 02:49:57;;;;;;;43.03;25.75;;;-0.30;99.90;;;;;;2081102;28;20101;-77
2023/12/05 02:50:58;;;;;;;43.05;26.65;;;-0.30;99.90;;;;;;2092183;28;20458;-76
2023/12/05 02:51:58;;;;;;;40.13;25.27;;;-0.30;99.90;;;;;;2086876;28;20033;-75
2023/12/05 02:52:59;;;;;;;42.42;26.17;;;-0.30;99.90;;;;;;2080307;28;20017;-76
2023/12/05 02:54:06;;;;;;;41.03;24.80;;;-0.30;99.90;;;;;;2079914;28;20462;-76
2023/12/05 02:55:07;;;;;;;41.55;25.73;;;-0.30;99.90;;;;;;2088528;28;20031;-76
2023/12/05 02:56:08;;;;;;;42.65;25.10;;;-0.30;99.90;;;;;;2085409;28;20053;-76
2023/12/05 02:57:08;;;;;;;42.28;26.15;;;-0.30;99.90;;;;;;2096269;28;20040;-76
2023/12/05 02:58:09;;;;;;;44.53;25.98;;;-0.30;99.90;;;;;;2091742;28;20036;-76
2023/12/05 02:59:10;;;;;;;40.15;25.02;;;-0.30;99.90;;;;;;2084799;28;20033;-76
2023/12/05 03:00:11;;;;;;;42.25;25.90;;;-0.30;99.90;;;;;;2085084;28;20406;-77
2023/12/05 03:01:12;;;;;;;41.35;25.05;;;-0.30;99.90;;;;;;2078465;28;20030;-77
2023/12/05 03:02:13;;;;;;;40.05;24.88;;;-0.30;99.90;;;;;;2086338;28;20031;-77
2023/12/05 03:03:16;;;;;;;48.03;26.55;;;-0.20;99.90;;;;;;2089798;28;20025;-77
2023/12/05 03:04:17;;;;;;;41.40;26.05;;;-0.30;99.90;;;;;;2088633;28;20478;-77
2023/12/05 03:05:18;;;;;;;42.92;26.00;;;-0.30;99.90;;;;;;2092187;28;20081;-77
2023/12/05 03:06:19;;;;;;;40.30;25.02;;;-0.30;99.90;;;;;;2078151;28;20115;-77
2023/12/05 03:07:19;;;;;;;40.95;25.38;;;-0.30;99.90;;;;;;2075661;28;20133;-78
2023/12/05 03:08:20;;;;;;;39.50;24.63;;;-0.20;99.90;;;;;;2077391;28;20132;-77
2023/12/05 03:09:21;;;;;;;42.70;25.65;;;-0.20;99.90;;;;;;2084983;28;20033;-77
2023/12/05 03:10:21;;;;;;;39.80;24.70;;;-0.20;99.90;;;;;;2078779;28;20141;-76
2023/12/05 03:11:22;;;;;;;39.78;24.45;;;-0.20;99.90;;;;;;2074039;28;20148;-77
2023/12/05 03:12:22;;;;;;;42.10;25.98;;;-0.20;99.90;;;;;;2079933;28;20028;-77
2023/12/05 03:13:23;;;;;;;39.72;24.30;;;-0.20;99.90;;;;;;2092240;28;20055;-77
2023/12/05 03:14:24;;;;;;;40.53;25.25;;;-0.20;99.90;;;;;;2076040;28;20158;-77
2023/12/05 03:15:24;;;;;;;39.83;25.20;;;-0.20;99.90;;;;;;2087767;28;20457;-76
2023/12/05 03:16:25;;;;;;;39.08;24.63;;;-0.20;99.90;;;;;;2090892;28;20036;-77
2023/12/05 03:17:25;;;;;;;40.42;24.70;;;-0.20;99.90;;;;;;2083956;28;20028;-77
2023/12/05 03:18:26;;;;;;;39.63;24.48;;;-0.20;99.90;;;;;;2083944;28;20025;-77
2023/12/05 03:19:26;;;;;;;41.25;24.88;;;-0.20;99.90;;;;;;2086981;28;20029;-77
2023/12/05 03:20:27;;;;;;;43.08;25.00;;;-0.20;99.90;;;;;;2086777;28;20040;-77
2023/12/05 03:21:28;;;;;;;41.75;24.90;;;-0.20;99.90;;;;;;2085581;28;20033;-77
2023/12/05 03:22:28;;;;;;;41.40;25.45;;;-0.30;99.90;;;;;;2079782;28;20456;-77
2023/12/05 03:23:29;;;;;;;41.92;25.42;;;-0.30;99.90;;;;;;2090530;28;20521;-78
2023/12/05 03:24:29;;;;;;;40.25;24.48;;;-0.20;99.90;;;;;;2077177;28;20148;-77
2023/12/05 03:25:30;;;;;;;38.13;24.30;;;-0.20;99.90;;;;;;2084252;28;20305;-77
2023/12/05 03:26:30;;;;;;;39.72;24.42;;;-0.20;99.90;;;;;;2082873;28;20036;-77
2023/12/05 03:27:31;;;;;;;42.33;25.23;;;-0.20;99.90;;;;;;2083985;28;20056;-78
2023/12/05 03:28:32;;;;;;;38.97;24.77;;;-0.20;99.90;;;;;;2087657;28;20035;-78
2023/12/05 03:29:33;;;;;;;41.28;25.10;;;-0.20;99.90;;;;;;2083584;28;20430;-77
2023/12/05 03:30:34;;;;;;;41.25;25.25;;;-0.20;99.90;;;;;;2069884;28;20639;-75
2023/12/05 03:31:38;;;;;;;41.42;25.30;;;-0.20;99.90;;;;;;2079077;28;20025;-75
2023/12/05 03:32:39;;;;;;;40.33;24.73;;;-0.20;99.90;;;;;;2093327;28;20063;-76
2023/12/05 03:33:39;;;;;;;42.35;25.17;;;-0.20;99.90;;;;;;2081253;28;20029;-77
2023/12/05 03:34:40;;;;;;;40.53;25.02;;;-0.20;99.90;;;;;;2066538;28;20026;-78
2023/12/05 03:35:40;;;;;;;41.30;25.23;;;-0.20;99.90;;;;;;2084653;28;20036;-77
2023/12/05 03:36:41;;;;;;;39.85;24.48;;;-0.20;99.90;;;;;;2077325;28;20438;-77
2023/12/05 03:37:41;;;;;;;42.05;24.75;;;-0.10;99.90;;;;;;2087407;28;20033;-77
2023/12/05 03:38:42;;;;;;;40.03;24.10;;;-0.10;99.90;;;;;;2087400;28;20725;-77
2023/12/05 03:39:42;;;;;;;43.00;25.88;;;-0.10;99.90;;;;;;2091536;28;20016;-77
2023/12/05 03:40:43;;;;;;;40.83;24.95;;;-0.10;99.90;;;;;;2085436;28;20104;-78
2023/12/05 03:41:46;;;;;;;40.08;24.38;;;-0.10;99.90;;;;;;2080870;28;20026;-77
2023/12/05 03:42:46;;;;;;;43.03;25.65;;;-0.10;99.90;;;;;;2083440;28;20387;-77
2023/12/05 03:43:47;;;;;;;41.67;25.38;;;-0.10;99.90;;;;;;2083630;28;20041;-78
2023/12/05 03:44:47;;;;;;;43.15;25.77;;;-0.10;99.90;;;;;;2086593;28;20039;-77
2023/12/05 03:45:48;;;;;;;38.80;24.70;;;-0.20;99.90;;;;;;2088889;28;20041;-77
2023/12/05 03:46:49;;;;;;;42.33;25.80;;;-0.20;99.90;;;;;;2093379;28;20112;-76
2023/12/05 03:47:50;;;;;;;43.10;25.90;;;-0.20;99.90;;;;;;2080858;28;20029;-77
2023/12/05 03:48:50;;;;;;;42.55;25.83;;;-0.20;99.90;;;;;;2079352;28;20041;-76
2023/12/05 03:49:51;;;;;;;40.60;25.27;;;-0.20;99.90;;;;;;2083141;28;20064;-77
2023/12/05 03:50:51;;;;;;;42.92;26.55;;;-0.20;99.90;;;;;;2087595;28;20028;-77
2023/12/05 03:51:52;;;;;;;43.35;25.27;;;-0.20;99.90;;;;;;2088131;28;20466;-77
2023/12/05 03:52:52;;;;;;;40.55;25.17;;;-0.20;99.90;;;;;;2085570;28;20390;-75
2023/12/05 03:53:53;;;;;;;42.40;25.90;;;-0.30;99.90;;;;;;2077931;28;20365;-77
2023/12/05 03:54:53;;;;;;;43.92;26.20;;;-0.20;99.90;;;;;;2079585;28;20088;-77
2023/12/05 03:55:54;;;;;;;42.28;25.95;;;-0.20;99.90;;;;;;2090995;28;20643;-76
2023/12/05 03:56:55;;;;;;;42.17;25.20;;;-0.20;99.90;;;;;;2091221;28;20687;-76
2023/12/05 03:57:55;;;;;;;41.60;25.70;;;-0.20;99.90;;;;;;2080282;28;20045;-76
2023/12/05 03:58:56;;;;;;;44.30;25.35;;;-0.20;99.90;;;;;;2076382;28;20061;-77
2023/12/05 03:59:56;;;;;;;40.78;24.85;;;-0.30;99.90;;;;;;2083284;28;20040;-77
2023/12/05 04:00:57;;;;;;;39.92;25.17;;;-0.30;99.90;;;;;;2090565;28;20038;-77
2023/12/05 04:01:57;;;;;;;41.55;25.40;;;-0.30;99.90;;;;;;2076410;28;20034;-77
2023/12/05 04:02:58;;;;;;;45.63;26.63;;;-0.20;99.90;;;;;;2075044;28;20030;-77
2023/12/05 04:03:58;;;;;;;40.20;24.85;;;-0.20;99.90;;;;;;2077586;28;20458;-77
2023/12/05 04:05:01;;;;;;;41.08;25.20;;;-0.20;99.90;;;;;;2087086;28;20482;-77
2023/12/05 04:06:01;;;;;;;42.28;24.90;;;-0.20;99.90;;;;;;2083366;28;20056;-77
2023/12/05 04:07:02;;;;;;;41.33;25.45;;;-0.20;99.90;;;;;;2083041;28;20037;-77
2023/12/05 04:08:02;;;;;;;39.63;24.48;;;-0.30;99.90;;;;;;2082947;28;20174;-77
2023/12/05 04:09:04;;;;;;;40.85;24.52;;;-0.20;99.90;;;;;;2078935;28;20036;-76
2023/12/05 04:10:06;;;;;;;42.05;25.80;;;-0.20;99.90;;;;;;2091151;28;20024;-77
2023/12/05 04:11:06;;;;;;;44.22;25.30;;;-0.20;99.90;;;;;;2087219;28;20039;-77
2023/12/05 04:12:07;;;;;;;42.35;25.50;;;-0.20;99.90;;;;;;2091221;28;20028;-76
2023/12/05 04:13:08;;;;;;;40.53;24.98;;;-0.30;99.90;;;;;;2092300;28;20107;-77
2023/12/05 04:14:09;;;;;;;43.38;26.05;;;-0.30;99.90;;;;;;2087869;28;20020;-78
2023/12/05 04:15:09;;;;;;;41.20;25.35;;;-0.30;99.90;;;;;;2086244;28;20029;-76
2023/12/05 04:16:10;;;;;;;41.10;25.23;;;-0.30;99.90;;;;;;2091604;28;20111;-77
2023/12/05 04:17:10;;;;;;;44.10;25.70;;;-0.30;99.90;;;;;;2084507;28;20431;-76
2023/12/05 04:18:11;;;;;;;45.22;25.80;;;-0.30;99.90;;;;;;2081828;28;20037;-77
2023/12/05 04:19:11;;;;;;;41.90;25.40;;;-0.30;99.90;;;;;;2079661;28;20031;-77
2023/12/05 04:20:12;;;;;;;42.97;25.77;;;-0.30;99.90;;;;;;2088904;28;20203;-76
2023/12/05 04:21:13;;;;;;;42.72;24.95;;;-0.40;99.90;;;;;;2089901;28;20037;-77
2023/12/05 04:22:13;;;;;;;43.50;26.23;;;-0.40;99.90;;;;;;2082974;28;20024;-76
2023/12/05 04:23:14;;;;;;;43.25;26.23;;;-0.40;99.90;;;;;;2084792;28;20090;-77
2023/12/05 04:24:14;;;;;;;41.33;25.77;;;-0.40;99.90;;;;;;2089275;28;20249;-77
2023/12/05 04:25:16;;;;;;;42.67;25.95;;;-0.40;99.90;;;;;;2092823;28;20346;-77
2023/12/05 04:26:20;;;;;;;42.80;25.85;;;-0.50;99.90;;;;;;2077283;28;20550;-76
2023/12/05 04:27:21;;;;;;;44.03;26.05;;;-0.50;99.90;;;;;;2083887;28;20034;-77
2023/12/05 04:28:21;;;;;;;43.15;26.45;;;-0.50;99.90;;;;;;2088213;28;20070;-76
2023/12/05 04:29:22;;;;;;;42.42;25.83;;;-0.50;99.90;;;;;;2091682;28;20082;-76
2023/12/05 04:30:22;;;;;;;43.50;26.17;;;-0.50;99.90;;;;;;2085522;28;20033;-76
2023/12/05 04:31:27;;;;;;;44.88;25.45;;;-0.50;99.90;;;;;;2072576;28;20044;-76
2023/12/05 04:32:27;;;;;;;45.60;26.05;;;-0.50;99.90;;;;;;2072855;28;20041;-77
2023/12/05 04:33:28;;;;;;;43.90;26.33;;;-0.50;99.90;;;;;;2082948;28;20154;-77
2023/12/05 04:34:28;;;;;;;46.22;26.83;;;-0.50;99.90;;;;;;2087386;28;20420;-76
2023/12/05 04:35:29;;;;;;;43.38;26.08;;;-0.60;99.90;;;;;;2089545;28;20028;-76
2023/12/05 04:36:29;;;;;;;41.85;25.60;;;-0.50;99.90;;;;;;2085444;28;20469;-77
2023/12/05 04:37:30;;;;;;;45.00;26.98;;;-0.60;99.90;;;;;;2091972;28;20040;-77
2023/12/05 04:38:30;;;;;;;48.60;28.33;;;-0.60;99.90;;;;;;2088479;28;20016;-77
2023/12/05 04:39:31;;;;;;;41.60;25.77;;;-0.60;99.90;;;;;;2084299;28;20102;-78
2023/12/05 04:40:31;;;;;;;41.42;25.67;;;-0.60;99.90;;;;;;2091607;28;20045;-77
2023/12/05 04:41:33;;;;;;;44.25;26.10;;;-0.50;99.90;;;;;;2093383;28;20042;-76
2023/12/05 04:42:34;;;;;;;50.85;25.83;;;-0.50;99.90;;;;;;2083980;28;20082;-78
2023/12/05 04:43:36;;;;;;;65.97;25.45;;;-0.40;99.90;;;;;;2091869;28;20146;-78
2023/12/05 04:44:36;;;;;;;44.47;26.67;;;-0.30;99.90;;;;;;2092278;28;20447;-77
2023/12/05 04:45:38;;;;;;;47.05;25.92;;;-0.30;99.90;;;;;;2085207;28;20076;-77
2023/12/05 04:46:38;;;;;;;47.63;27.85;;;-0.30;99.90;;;;;;2084990;28;20426;-77
2023/12/05 04:47:39;;;;;;;46.00;26.65;;;-0.30;99.90;;;;;;2093067;28;20219;-76
2023/12/05 04:48:39;;;;;;;52.38;25.50;;;-0.30;99.90;;;;;;2092193;28;20335;-77
2023/12/05 04:49:40;;;;;;;42.90;25.00;;;-0.20;99.90;;;;;;2078162;28;20086;-76
2023/12/05 04:50:40;;;;;;;47.15;25.05;;;-0.20;99.90;;;;;;2074106;28;20056;-78
2023/12/05 04:51:41;;;;;;;55.70;26.38;;;-0.10;99.90;;;;;;2079331;28;20128;-76
2023/12/05 04:52:41;;;;;;;43.30;26.42;;;0.00;99.90;;;;;;2087612;28;20021;-76
2023/12/05 04:53:42;;;;;;;44.20;26.17;;;0.20;99.90;;;;;;2090228;28;20028;-76
2023/12/05 04:54:42;;;;;;;43.38;25.90;;;0.10;99.90;;;;;;2092012;28;20493;-77
2023/12/05 04:55:43;;;;;;;44.38;26.15;;;0.10;99.90;;;;;;2084017;28;20185;-76
2023/12/05 04:56:43;;;;;;;48.03;27.52;;;0.10;99.90;;;;;;2087204;28;20031;-75
2023/12/05 04:57:44;;;;;;;43.63;26.35;;;0.00;99.90;;;;;;2087678;28;20020;-76
2023/12/05 04:58:45;;;;;;;42.65;26.02;;;-0.10;99.90;;;;;;2080222;28;20040;-76
2023/12/05 04:59:45;;;;;;;44.47;25.80;;;-0.20;99.90;;;;;;2082692;28;20029;-76
2023/12/05 05:00:46;;;;;;;42.30;25.58;;;-0.20;99.90;;;;;;2076750;28;20072;-76
2023/12/05 05:01:47;;;;;;;42.80;24.58;;;-0.10;99.90;;;;;;2092785;28;20055;-77
2023/12/05 05:02:47;;;;;;;41.15;24.83;;;-0.20;99.90;;;;;;2087007;28;20134;-77
2023/12/05 05:03:48;;;;;;;41.67;24.83;;;-0.20;99.90;;;;;;2074663;28;20127;-77
2023/12/05 05:04:48;;;;;;;40.35;24.67;;;-0.20;99.90;;;;;;2083109;28;20024;-77
2023/12/05 05:05:50;;;;;;;42.13;25.15;;;-0.20;99.90;;;;;;2085477;28;20035;-77
2023/12/05 05:06:50;;;;;;;42.05;25.45;;;-0.20;99.90;;;;;;2078702;28;20017;-77
2023/12/05 05:07:51;;;;;;;42.33;25.02;;;-0.20;99.90;;;;;;2082947;28;20032;-77
2023/12/05 05:08:51;;;;;;;43.58;25.30;;;-0.20;99.90;;;;;;2074795;28;20043;-77
2023/12/05 05:09:52;;;;;;;42.55;25.92;;;-0.10;99.90;;;;;;2068287;28;20053;-77
2023/12/05 05:10:53;;;;;;;42.63;25.17;;;-0.20;99.90;;;;;;2081056;28;20056;-81
2023/12/05 05:11:53;;;;;;;45.80;25.88;;;-0.20;99.90;;;;;;2090302;28;20020;-79
2023/12/05 05:12:54;;;;;;;41.58;25.80;;;-0.30;99.90;;;;;;2093117;28;20028;-79